Map

Track Data

SID SEASON NUMBER BASIN SUBBASIN NAME ISO_TIME NATURE LAT LON WMO_WIND WMO_PRES WMO_AGENCY TRACK_TYPE DIST2LAND LANDFALL IFLAG USA_AGENCY USA_ATCF_ID USA_LAT USA_LON USA_RECORD USA_STATUS USA_WIND USA_PRES USA_SSHS USA_R34_NE USA_R34_SE USA_R34_SW USA_R34_NW USA_R50_NE USA_R50_SE USA_R50_SW USA_R50_NW USA_R64_NE USA_R64_SE USA_R64_SW USA_R64_NW USA_POCI USA_ROCI USA_RMW USA_EYE TOKYO_LAT TOKYO_LON TOKYO_GRADE TOKYO_WIND TOKYO_PRES TOKYO_R50_DIR TOKYO_R50_LONG TOKYO_R50_SHORT TOKYO_R30_DIR TOKYO_R30_LONG TOKYO_R30_SHORT TOKYO_LAND CMA_LAT CMA_LON CMA_CAT CMA_WIND CMA_PRES HKO_LAT HKO_LON HKO_CAT HKO_WIND HKO_PRES NEWDELHI_LAT NEWDELHI_LON NEWDELHI_GRADE NEWDELHI_WIND NEWDELHI_PRES NEWDELHI_CI NEWDELHI_DP NEWDELHI_POCI REUNION_LAT REUNION_LON REUNION_TYPE REUNION_WIND REUNION_PRES REUNION_TNUM REUNION_CI REUNION_RMW REUNION_R34_NE REUNION_R34_SE REUNION_R34_SW REUNION_R34_NW REUNION_R50_NE REUNION_R50_SE REUNION_R50_SW REUNION_R50_NW REUNION_R64_NE REUNION_R64_SE REUNION_R64_SW REUNION_R64_NW BOM_LAT BOM_LON BOM_TYPE BOM_WIND BOM_PRES BOM_TNUM BOM_CI BOM_RMW BOM_R34_NE BOM_R34_SE BOM_R34_SW BOM_R34_NW BOM_R50_NE BOM_R50_SE BOM_R50_SW BOM_R50_NW BOM_R64_NE BOM_R64_SE BOM_R64_SW BOM_R64_NW BOM_ROCI BOM_POCI BOM_EYE BOM_POS_METHOD BOM_PRES_METHOD NADI_LAT NADI_LON NADI_CAT NADI_WIND NADI_PRES WELLINGTON_LAT WELLINGTON_LON WELLINGTON_WIND WELLINGTON_PRES DS824_LAT DS824_LON DS824_STAGE DS824_WIND DS824_PRES TD9636_LAT TD9636_LON TD9636_STAGE TD9636_WIND TD9636_PRES TD9635_LAT TD9635_LON TD9635_WIND TD9635_PRES TD9635_ROCI NEUMANN_LAT NEUMANN_LON NEUMANN_CLASS NEUMANN_WIND NEUMANN_PRES MLC_LAT MLC_LON MLC_CLASS MLC_WIND MLC_PRES USA_GUST BOM_GUST BOM_GUST_PER REUNION_GUST REUNION_GUST_PER USA_SEAHGT USA_SEARAD_NE USA_SEARAD_SE USA_SEARAD_SW USA_SEARAD_NW STORM_SPEED STORM_DIR
1891263N17124 1891 37 WP MM NOT_NAMED 1891-09-20 04:00:00 NR 17.1000 123.800 main 138 119 __________O___ -1 17.1000 123.800 7 9 311
1891263N17124 1891 37 WP MM NOT_NAMED 1891-09-20 06:00:00 NR 17.2994 123.556 main 121 91 __________P___ -1 17.2994 123.556 7 9 311
1891263N17124 1891 37 WP MM NOT_NAMED 1891-09-20 09:00:00 NR 17.5985 123.192 main 91 67 __________P___ -1 17.5985 123.192 7 9 311
1891263N17124 1891 37 WP MM NOT_NAMED 1891-09-20 12:00:00 NR 17.8981 122.840 main 67 23 __________P___ -1 17.8981 122.840 7 9 313
1891263N17124 1891 37 WP MM NOT_NAMED 1891-09-20 15:00:00 NR 18.1992 122.506 main 23 10 __________P___ -1 18.1992 122.506 7 9 314
1891263N17124 1891 37 WP MM NOT_NAMED 1891-09-20 16:00:00 NR 18.3000 122.400 main 10 0 __________O___ -1 18.3000 122.400 4 8 316
1891263N17124 1891 37 WP MM NOT_NAMED 1891-09-20 18:00:00 NR 18.5019 122.196 main 11 11 __________P___ -1 18.5019 122.196 4 8 317
1891263N17124 1891 37 WP MM NOT_NAMED 1891-09-20 21:00:00 NR 18.7988 121.904 main 49 49 __________P___ -1 18.7988 121.904 4 8 316
1891263N17124 1891 37 WP MM NOT_NAMED 1891-09-21 00:00:00 NR 19.0777 121.613 main 70 67 __________P___ -1 19.0777 121.613 4 8 313
1891263N17124 1891 37 WP MM NOT_NAMED 1891-09-21 03:00:00 NR 19.3262 121.308 main 88 88 __________P___ -1 19.3262 121.308 4 8 310
1891263N17124 1891 37 WP MM NOT_NAMED 1891-09-21 04:00:00 NR 19.4000 121.200 main 94 91 __________O___ -1 19.4000 121.200 4 7 302
1891263N17124 1891 37 WP MM NOT_NAMED 1891-09-21 06:00:00 NR 19.5204 120.980 main 101 100 __________P___ -1 19.5204 120.980 4 7 297
1891263N17124 1891 37 WP MM NOT_NAMED 1891-09-21 09:00:00 NR 19.6694 120.631 main 124 124 __________P___ -1 19.6694 120.631 4 7 292
1891263N17124 1891 37 WP MM NOT_NAMED 1891-09-21 12:00:00 NR 19.8029 120.255 main 144 148 __________P___ -1 19.8029 120.255 4 8 291
1891263N17124 1891 37 WP MM NOT_NAMED 1891-09-21 15:00:00 NR 19.9459 119.845 main 179 188 __________P___ -1 19.9459 119.845 4 8 291
1891263N17124 1891 37 WP MM NOT_NAMED 1891-09-21 16:00:00 NR 20.0000 119.700 main 194 194 __________O___ -1 20.0000 119.700 4 10 293
1891263N17124 1891 37 WP MM NOT_NAMED 1891-09-21 18:00:00 NR 20.1333 119.372 main 222 230 __________P___ -1 20.1333 119.372 4 11 294
1891263N17124 1891 37 WP MM NOT_NAMED 1891-09-21 21:00:00 NR 20.3521 118.848 main 258 258 __________P___ -1 20.3521 118.848 4 11 295
1891263N17124 1891 37 WP MM NOT_NAMED 1891-09-22 00:00:00 NR 20.5846 118.323 main 288 270 __________P___ -1 20.5846 118.323 4 11 297
1891263N17124 1891 37 WP MM NOT_NAMED 1891-09-22 03:00:00 NR 20.8216 117.843 main 270 255 __________P___ -1 20.8216 117.843 4 10 298
1891263N17124 1891 37 WP MM NOT_NAMED 1891-09-22 04:00:00 NR 20.9000 117.700 main 255 236 __________O___ -1 20.9000 117.700 4 8 302
1891263N17124 1891 37 WP MM NOT_NAMED 1891-09-22 06:00:00 NR 21.0441 117.467 main 236 192 __________P___ -1 21.0441 117.467 4 7 306
1891263N17124 1891 37 WP MM NOT_NAMED 1891-09-22 09:00:00 NR 21.2607 117.175 main 192 161 __________P___ -1 21.2607 117.175 4 7 311
1891263N17124 1891 37 WP MM NOT_NAMED 1891-09-22 12:00:00 NR 21.4833 116.925 main 161 135 __________P___ -1 21.4833 116.925 4 6 315
1891263N17124 1891 37 WP MM NOT_NAMED 1891-09-22 15:00:00 NR 21.7180 116.684 main 135 123 __________P___ -1 21.7180 116.684 4 7 316
1891263N17124 1891 37 WP MM NOT_NAMED 1891-09-22 16:00:00 NR 21.8000 116.600 main 123 102 __________O___ -1 21.8000 116.600 4 8 302
1891263N17124 1891 37 WP MM NOT_NAMED 1891-09-22 18:00:00 NR 21.9302 116.326 main 102 67 __________P___ -1 21.9302 116.326 4 9 298
1891263N17124 1891 37 WP MM NOT_NAMED 1891-09-22 21:00:00 NR 22.1368 115.907 main 67 33 __________P___ -1 22.1368 115.907 4 8 303
1891263N17124 1891 37 WP MM NOT_NAMED 1891-09-23 00:00:00 NR 22.3959 115.565 main 33 0 __________P___ -1 22.3959 115.565 4 8 323
1891263N17124 1891 37 WP MM NOT_NAMED 1891-09-23 03:00:00 NR 22.7520 115.399 main 0 0 __________P___ -1 22.7520 115.399 4 8 343
1891263N17124 1891 37 WP MM NOT_NAMED 1891-09-23 04:00:00 NR 22.9000 115.400 main 0 0 __________O___ -1 22.9000 115.400 4 11 10
1891263N17124 1891 37 WP MM NOT_NAMED 1891-09-23 06:00:00 NR 23.2870 115.506 main 0 0 __________P___ -1 23.2870 115.506 4 14 22
1891263N17124 1891 37 WP MM NOT_NAMED 1891-09-23 09:00:00 NR 23.9695 115.861 main 0 0 __________P___ -1 23.9695 115.861 4 16 30
1891263N17124 1891 37 WP MM NOT_NAMED 1891-09-23 12:00:00 NR 24.6993 116.400 main 0 0 __________P___ -1 24.6993 116.400 4 18 37
1891263N17124 1891 37 WP MM NOT_NAMED 1891-09-23 15:00:00 NR 25.3919 117.062 main 0 0 __________P___ -1 25.3919 117.062 4 18 42
1891263N17124 1891 37 WP MM NOT_NAMED 1891-09-23 16:00:00 NR 25.6000 117.300 main 0 0 __________O___ -1 25.6000 117.300 4 17 49
1891263N17124 1891 37 WP MM NOT_NAMED 1891-09-23 18:00:00 NR 25.9381 117.759 main 0 0 __________P___ -1 25.9381 117.759 4 16 55
1891263N17124 1891 37 WP MM NOT_NAMED 1891-09-23 21:00:00 NR 26.3757 118.524 main 0 0 __________P___ -1 26.3757 118.524 4 16 60
1891263N17124 1891 37 WP MM NOT_NAMED 1891-09-24 00:00:00 NR 26.7515 119.334 main 0 0 __________P___ -1 26.7515 119.334 4 16 64
1891263N17124 1891 37 WP MM NOT_NAMED 1891-09-24 03:00:00 NR 27.0906 120.141 main 0 0 __________P___ -1 27.0906 120.141 4 16 65
1891263N17124 1891 37 WP MM NOT_NAMED 1891-09-24 04:00:00 NR 27.2000 120.400 main 0 0 __________O___ -1 27.2000 120.400 4 15 64
1891263N17124 1891 37 WP MM NOT_NAMED 1891-09-24 06:00:00 NR 27.4181 120.897 main 22 22 __________P___ -1 27.4181 120.897 4 14 63
1891263N17124 1891 37 WP MM NOT_NAMED 1891-09-24 09:00:00 NR 27.7443 121.594 main 53 44 __________P___ -1 27.7443 121.594 4 14 62
1891263N17124 1891 37 WP MM NOT_NAMED 1891-09-24 12:00:00 NR 28.0694 122.252 main 72 72 __________P___ -1 28.0694 122.252 4 13 60
1891263N17124 1891 37 WP MM NOT_NAMED 1891-09-24 15:00:00 NR 28.3927 122.889 main 121 121 __________P___ -1 28.3927 122.889 4 13 60
1891263N17124 1891 37 WP MM NOT_NAMED 1891-09-24 16:00:00 NR 28.5000 123.100 main 132 __________O___ -1 28.5000 123.100 4 13 60

Digital Typhoon Data and Search

About IBTrACS Database

This database is a web-friendly format of International Best Track Archive for Climate Stewardship (IBTrACS), a global best track data archive curated by NOAA dating back to 1842.

Updated: 2021-10-19